Time;durP1;ratioP1;P1;durP2;ratioP2;P2;SDS_P1;SDS_P2;PMS_P1;PMS_P2;Temp;Humidity;BMP_temperature;BMP_pressure;BME280_temperature;BME280_humidity;BME280_pressure;Samples;Min_cycle;Max_cycle;Signal;HPM_P1;HPM_P2
2021/05/23 07:47:39;;;;;;;;;;;;;;;22.92;44.66;100077.06;6332966;27;19921;-34
2021/05/23 07:50:40;;;;;;;;;;;;;;;22.70;45.31;100060.84;6300085;28;19935;-35
2021/05/23 07:53:41;;;;;;;;;;;;;;;22.68;45.38;100059.34;6299979;28;19971;-35
2021/05/23 07:56:42;;;;;;;;;;;;;;;22.62;45.47;100063.53;6283395;28;19932;-35
2021/05/23 07:59:42;;;;;;;;;;;;;;;22.64;45.17;100045.56;6301561;28;19931;-34
2021/05/23 09:49:53;;;;;;;6.28;1.80;;;;;;;22.03;50.29;100013.34;6297128;27;20378;-58
2021/05/23 09:52:55;;;;;;;4.85;1.98;;;;;;;22.35;47.17;100006.28;6296944;28;20087;-59
2021/05/23 09:55:57;;;;;;;6.27;1.83;;;;;;;22.47;47.09;100007.59;6296140;28;20446;-57
2021/05/23 09:58:58;;;;;;;4.97;1.70;;;;;;;22.57;46.79;100009.19;6298016;28;20750;-40
2021/05/23 10:02:10;;;;;;;4.28;1.90;;;;;;;22.43;47.32;100016.91;6297727;28;20045;-42
2021/05/23 10:05:11;;;;;;;2.88;1.52;;;;;;;22.39;47.70;100007.63;6298589;28;20044;-40
2021/05/23 10:08:14;;;;;;;5.18;1.92;;;;;;;22.60;47.85;100009.69;6297898;28;20040;-42
2021/05/23 10:11:15;;;;;;;6.25;1.92;;;;;;;22.52;48.08;100007.06;6297847;28;20486;-40
2021/05/23 10:14:16;;;;;;;12.10;3.07;;;;;;;22.53;48.28;100011.41;6297473;28;20048;-41
2021/05/23 10:17:18;;;;;;;9.57;2.70;;;;;;;22.56;48.46;100002.25;6296469;28;20123;-39
2021/05/23 10:20:19;;;;;;;12.57;3.13;;;;;;;22.52;48.80;100005.22;6297639;28;20449;-40
2021/05/23 10:23:25;;;;;;;12.93;4.05;;;;;;;22.51;48.83;100008.06;6296941;28;20040;-39
2021/05/23 10:26:27;;;;;;;12.95;3.42;;;;;;;22.49;49.14;99997.59;6295359;28;20052;-39
2021/05/23 10:29:29;;;;;;;11.45;3.53;;;;;;;22.50;49.20;99990.44;6312473;28;20524;-39
2021/05/23 10:32:33;;;;;;;15.80;3.47;;;;;;;22.50;49.25;99985.13;6296670;28;20047;-40
2021/05/23 10:35:34;;;;;;;13.30;3.67;;;;;;;22.52;49.56;99975.16;6299301;28;20044;-40
2021/05/23 10:38:35;;;;;;;13.50;4.38;;;;;;;22.63;49.51;99990.75;6299819;28;20600;-44
2021/05/23 10:41:37;;;;;;;19.60;4.00;;;;;;;22.55;49.61;99982.81;6293870;28;20040;-39
2021/05/23 10:44:46;;;;;;;12.73;3.60;;;;;;;22.51;50.00;99984.97;6279274;28;20047;-39
2021/05/23 10:47:46;;;;;;;12.38;3.80;;;;;;;22.50;50.24;99975.31;6297461;28;20056;-40
2021/05/23 10:50:47;;;;;;;11.57;3.63;;;;;;;22.50;50.47;99980.63;6299792;28;20036;-39
2021/05/23 10:53:49;;;;;;;17.77;4.10;;;;;;;22.49;50.61;99971.03;6296461;28;20055;-40
2021/05/23 10:57:00;;;;;;;11.30;3.72;;;;;;;22.49;50.83;99973.69;6296004;28;20036;-40
2021/05/23 11:00:04;;;;;;;8.90;3.00;;;;;;;22.50;50.96;99979.81;6285763;28;20040;-40
2021/05/23 11:03:11;;;;;;;13.25;3.60;;;;;;;22.50;51.14;99964.69;6279551;28;20189;-39
2021/05/23 11:06:21;;;;;;;11.05;3.25;;;;;;;22.51;51.10;99966.34;6279238;28;20033;-40
2021/05/23 11:09:33;;;;;;;9.20;3.17;;;;;;;22.52;51.07;99959.19;6280234;28;20482;-40
2021/05/23 11:12:34;;;;;;;;;;;;;;;22.51;51.25;99954.91;6279300;28;20050;-44
2021/05/23 11:15:45;;;;;;;7.50;2.88;;;;;;;22.51;51.07;99954.91;6280060;28;19921;-44
2021/05/23 11:18:46;;;;;;;9.93;3.13;;;;;;;22.52;51.14;99951.22;6277702;28;20502;-45
2021/05/23 11:21:50;;;;;;;10.25;3.13;;;;;;;22.52;51.36;99944.06;6279622;28;20037;-43
2021/05/23 11:24:51;;;;;;;10.13;3.13;;;;;;;22.52;51.49;99938.75;6278567;28;20052;-43
2021/05/23 11:28:04;;;;;;;8.43;3.20;;;;;;;22.50;51.55;99943.41;6278834;28;20049;-42
2021/05/23 11:55:05;;;;;;;2.97;1.77;;;;;;;22.92;42.56;99912.94;6361989;27;20378;-61
2021/05/23 11:58:08;;;;;;;5.35;1.85;;;;;;;22.14;43.82;99904.03;6360855;27;20869;-61
2021/05/23 12:01:21;;;;;;;3.20;2.00;;;;;;;20.71;50.03;99910.75;6360439;27;20150;-59
2021/05/23 12:04:24;;;;;;;4.75;2.20;;;;;;;20.47;49.59;99901.75;6362702;27;20086;-59
2021/05/23 12:07:36;;;;;;;6.07;2.50;;;;;;;20.46;49.14;99892.13;6360893;27;20088;-60
2021/05/23 12:10:37;;;;;;;5.35;1.70;;;;;;;19.98;48.31;99890.13;6362862;27;20055;-61
2021/05/23 12:13:49;;;;;;;2.55;1.60;;;;;;;20.46;48.02;99886.00;6362008;27;20053;-58
2021/05/23 12:16:57;;;;;;;3.58;1.80;;;;;;;20.67;49.19;99875.81;6362289;27;20043;-59
2021/05/23 12:19:59;;;;;;;3.05;1.50;;;;;;;22.05;46.94;99869.69;6361826;27;20062;-59
2021/05/23 12:23:00;;;;;;;3.20;1.92;;;;;;;24.16;39.85;99870.00;6371419;27;20051;-60
2021/05/23 12:26:07;;;;;;;9.97;5.50;;;;;;;25.01;37.22;99871.09;6360308;27;21002;-59
2021/05/23 12:29:08;;;;;;;6.10;1.67;;;;;;;25.69;36.70;99873.28;6362128;27;20049;-59
2021/05/23 12:32:08;;;;;;;4.10;2.07;;;;;;;23.80;39.60;99868.06;6360215;27;20035;-59
2021/05/23 12:35:23;;;;;;;2.57;1.30;;;;;;;23.53;38.21;99872.19;6342883;27;20043;-59
2021/05/23 12:38:23;;;;;;;2.63;1.52;;;;;;;23.37;39.93;99869.69;6362378;27;20053;-59
2021/05/23 12:41:44;;;;;;;7.37;3.53;;;;;;;24.47;37.30;99876.91;6361083;27;20494;-61
2021/05/23 12:44:45;;;;;;;3.17;1.65;;;;;;;26.72;32.44;99875.97;6361872;27;20049;-61
2021/05/23 12:47:51;;;;;;;3.57;1.40;;;;;;;27.63;30.71;99870.00;6362187;27;20036;-60
2021/05/23 12:50:54;;;;;;;3.00;1.45;;;;;;;25.44;34.13;99863.03;6362002;27;20050;-61
2021/05/23 12:53:57;;;;;;;3.35;1.23;;;;;;;26.16;33.80;99860.16;6361542;27;20114;-61
2021/05/23 12:57:03;;;;;;;2.72;1.60;;;;;;;26.33;32.46;99862.25;6361691;27;20058;-61
2021/05/23 13:00:06;;;;;;;3.42;1.17;;;;;;;25.81;33.91;99847.66;6360003;27;20039;-62
2021/05/23 13:03:12;;;;;;;4.85;2.10;;;;;;;23.91;36.95;99846.31;6362109;27;20100;-61
2021/05/23 13:06:13;;;;;;;3.75;1.52;;;;;;;25.45;34.60;99839.81;6344312;27;20047;-62
2021/05/23 13:09:15;;;;;;;6.73;2.23;;;;;;;27.90;30.32;99832.44;6342950;27;20043;-62
2021/05/23 13:12:19;;;;;;;2.83;1.02;;;;;;;28.16;30.36;99819.94;6344137;27;20276;-58
2021/05/23 13:15:20;;;;;;;4.07;1.70;;;;;;;24.58;35.83;99823.09;6343820;27;20097;-59
2021/05/23 13:18:28;;;;;;;2.20;1.08;;;;;;;23.56;38.39;99815.09;6342435;27;20135;-58
2021/05/23 13:21:29;;;;;;;2.38;1.17;;;;;;;22.90;39.67;99808.53;6343968;27;20052;-58
2021/05/23 13:24:31;;;;;;;4.57;1.33;;;;;;;22.67;40.30;99802.41;6342121;27;20062;-58
2021/05/23 13:27:33;;;;;;;6.15;1.85;;;;;;;23.20;40.59;99792.66;6343948;27;20047;-58
2021/05/23 13:30:33;;;;;;;3.55;1.60;;;;;;;26.85;33.15;99790.38;6341186;27;20056;-58
2021/05/23 13:33:34;;;;;;;4.55;1.50;;;;;;;27.84;31.28;99785.84;6342684;27;20044;-59
2021/05/23 13:36:36;;;;;;;4.30;1.42;;;;;;;27.21;31.50;99769.53;6340523;27;20120;-58
2021/05/23 13:39:37;;;;;;;5.07;1.52;;;;;;;26.60;32.74;99771.41;6343044;27;20062;-60
2021/05/23 13:42:41;;;;;;;3.17;1.20;;;;;;;26.29;32.72;99771.94;6338767;27;20050;-59
2021/05/23 13:45:42;;;;;;;1.25;0.90;;;;;;;25.84;33.58;99760.91;6341790;27;20048;-58
2021/05/23 13:48:42;;;;;;;2.25;1.00;;;;;;;25.44;34.05;99756.22;6341799;27;20056;-58
2021/05/23 13:51:47;;;;;;;5.18;1.00;;;;;;;24.01;35.46;99754.59;6340565;27;20409;-58
2021/05/23 13:54:48;;;;;;;3.15;1.30;;;;;;;23.91;35.75;99734.41;6342695;27;20142;-58
2021/05/23 13:57:49;;;;;;;6.57;3.20;;;;;;;23.91;36.26;99742.41;6343007;27;20040;-59
2021/05/23 14:00:50;;;;;;;5.60;2.17;;;;;;;23.74;36.46;99736.44;6340567;27;20465;-59
2021/05/23 14:03:51;;;;;;;3.17;1.17;;;;;;;22.96;36.00;99734.31;6342982;27;20051;-58
2021/05/23 14:06:52;;;;;;;5.80;2.27;;;;;;;22.71;37.84;99724.78;6343147;27;20028;-58
2021/05/23 14:09:55;;;;;;;3.65;0.98;;;;;;;22.66;37.49;99727.13;6343075;27;20039;-59
2021/05/23 14:12:56;;;;;;;4.43;1.50;;;;;;;22.75;37.48;99727.88;6342373;27;20069;-58
2021/05/23 14:15:59;;;;;;;3.53;1.02;;;;;;;22.64;38.44;99737.13;6340531;27;20048;-58
2021/05/23 14:19:00;;;;;;;3.45;1.10;;;;;;;22.58;37.45;99739.66;6339940;27;20043;-58
2021/05/23 14:22:00;;;;;;;3.33;1.13;;;;;;;22.39;38.72;99736.50;6341580;27;20043;-58
2021/05/23 14:25:01;;;;;;;9.10;1.57;;;;;;;22.13;39.10;99742.13;6340010;27;20400;-58
2021/05/23 14:28:03;;;;;;;3.87;1.70;;;;;;;22.05;39.70;99740.38;6340797;27;20477;-58
2021/05/23 14:31:03;;;;;;;47.65;4.57;;;;;;;21.63;39.84;99741.56;6339264;27;20092;-58
2021/05/23 14:34:04;;;;;;;27.08;2.47;;;;;;;21.65;40.57;99730.78;6341107;27;20497;-58
2021/05/23 14:37:05;;;;;;;6.70;1.00;;;;;;;21.17;40.66;99720.16;6321845;27;20158;-58
2021/05/23 14:40:08;;;;;;;3.40;0.70;;;;;;;21.03;41.72;99728.81;6339188;27;20832;-58
2021/05/23 14:43:09;;;;;;;3.63;1.30;;;;;;;20.59;42.21;99724.72;6322731;27;20039;-58
2021/05/23 14:46:10;;;;;;;1.45;0.90;;;;;;;20.20;42.93;99730.63;6339780;27;20084;-58
2021/05/23 14:49:11;;;;;;;2.73;0.93;;;;;;;20.12;42.96;99735.94;6339736;27;20043;-58
2021/05/23 14:52:12;;;;;;;2.80;1.27;;;;;;;19.78;44.16;99743.94;6340700;27;20135;-58
2021/05/23 14:55:14;;;;;;;3.90;1.40;;;;;;;19.50;45.63;99747.63;6339992;27;20058;-58
2021/05/23 14:58:22;;;;;;;7.28;1.38;;;;;;;19.45;45.53;99741.97;6341427;27;20043;-58
2021/05/23 15:01:26;;;;;;;4.22;1.42;;;;;;;19.01;47.00;99734.13;6338206;27;20051;-58
2021/05/23 15:04:26;;;;;;;3.63;1.40;;;;;;;18.45;47.29;99738.81;6338523;28;20486;-58
2021/05/23 15:07:27;;;;;;;5.03;1.27;;;;;;;18.40;47.20;99730.50;6338327;27;20058;-58
2021/05/23 15:10:28;;;;;;;2.35;0.90;;;;;;;18.30;47.34;99741.16;6340592;27;20071;-58
2021/05/23 15:13:29;;;;;;;4.03;1.30;;;;;;;18.13;47.65;99737.50;6338192;27;20055;-58
2021/05/23 15:16:30;;;;;;;2.75;1.20;;;;;;;18.11;48.63;99739.47;6337960;27;20039;-59
2021/05/23 15:19:31;;;;;;;3.03;1.50;;;;;;;18.05;48.02;99740.06;6340435;27;20039;-58
2021/05/23 15:22:32;;;;;;;2.55;1.45;;;;;;;17.77;49.17;99741.03;6339371;27;20055;-58
2021/05/23 15:25:33;;;;;;;6.03;1.73;;;;;;;17.77;49.59;99763.00;6338518;27;20036;-58
2021/05/23 15:31:58;;;;;;;4.93;2.75;;;;;;;16.83;63.14;99860.53;6338295;28;20444;-58
2021/05/23 15:35:00;;;;;;;9.05;3.55;;;;;;;16.15;67.75;99884.91;6321441;28;20044;-58
2021/05/23 15:38:01;;;;;;;;;;;;;;;15.35;72.46;99875.91;6348686;27;20051;-58
2021/05/23 15:41:02;;;;;;;8.50;4.22;;;;;;;14.88;75.85;99905.13;6339621;27;20293;-58
2021/05/23 15:44:03;;;;;;;9.43;4.78;;;;;;;14.45;78.97;99942.66;6340108;27;20618;-58
2021/05/23 15:47:06;;;;;;;7.07;4.60;;;;;;;14.35;79.16;99948.78;6339441;28;20483;-60
2021/05/23 15:50:08;;;;;;;6.70;4.82;;;;;;;14.24;80.29;99942.56;6340396;28;20046;-60
2021/05/23 15:53:11;;;;;;;8.05;4.40;;;;;;;14.14;80.40;99917.19;6341304;28;20458;-60
2021/05/23 15:56:12;;;;;;;12.02;4.55;;;;;;;13.89;82.90;99943.50;6339162;28;20047;-59
2021/05/23 15:59:13;;;;;;;9.65;4.20;;;;;;;13.68;83.88;99974.81;6340444;28;20039;-58
2021/05/23 16:02:14;;;;;;;12.35;4.35;;;;;;;13.97;82.59;99958.66;6338199;28;20050;-59
2021/05/23 16:05:15;;;;;;;8.60;5.18;;;;;;;13.78;83.06;99956.63;6339269;28;20066;-59
2021/05/23 16:08:16;;;;;;;10.82;6.18;;;;;;;13.95;82.82;99957.94;6337301;28;20118;-58
2021/05/23 16:11:18;;;;;;;20.85;11.15;;;;;;;13.85;82.14;99943.88;6338658;28;20040;-59
2021/05/23 16:14:19;;;;;;;12.20;6.43;;;;;;;14.00;83.46;99929.59;6348376;28;20059;-57
2021/05/23 16:17:20;;;;;;;5.50;3.25;;;;;;;14.00;82.20;99958.44;6339477;28;20089;-58
2021/05/23 16:20:21;;;;;;;4.78;3.00;;;;;;;14.08;82.45;99950.81;6337345;28;20052;-58
2021/05/23 16:23:22;;;;;;;6.15;3.42;;;;;;;14.13;81.61;99931.28;6336080;28;20093;-57
2021/05/23 16:26:23;;;;;;;6.90;3.38;;;;;;;14.13;81.30;99912.91;6337822;28;20128;-60
2021/05/23 16:29:24;;;;;;;5.70;3.00;;;;;;;14.13;81.14;99895.38;6337785;28;20044;-60
2021/05/23 16:32:25;;;;;;;6.70;2.95;;;;;;;14.07;81.40;99880.09;6339692;28;20047;-60
2021/05/23 16:35:26;;;;;;;4.40;3.10;;;;;;;13.98;82.22;99884.28;6337521;28;20554;-59
2021/05/23 16:38:27;;;;;;;8.57;2.97;;;;;;;13.96;82.48;99898.44;6339944;28;20497;-59
2021/05/23 16:41:28;;;;;;;6.10;3.03;;;;;;;14.01;82.09;99880.59;6350203;27;20115;-58
2021/05/23 16:44:28;;;;;;;5.03;2.92;;;;;;;14.00;82.80;99885.00;6344481;27;20055;-58
2021/05/23 16:47:29;;;;;;;5.70;3.30;;;;;;;13.87;82.65;99892.97;6344373;27;20044;-57
2021/05/23 16:50:30;;;;;;;6.05;2.95;;;;;;;13.89;82.82;99885.81;6342743;27;20044;-58
2021/05/23 16:53:31;;;;;;;4.78;3.00;;;;;;;13.80;nan;99888.34;6342258;27;20063;-58
2021/05/23 16:56:32;;;;;;;10.05;3.22;;;;;;;13.75;82.64;99882.59;6344709;27;20042;-58
2021/05/23 16:59:33;;;;;;;6.70;2.83;;;;;;;13.74;83.56;99907.97;6325367;27;20118;-58
2021/05/23 17:02:34;;;;;;;6.15;3.05;;;;;;;13.70;84.60;99911.78;6341914;27;20126;-57
2021/05/23 17:05:35;;;;;;;5.90;2.80;;;;;;;13.59;84.14;99907.38;6343480;27;20043;-57
2021/05/23 17:08:36;;;;;;;8.25;5.50;;;;;;;13.64;83.47;99894.72;6343998;27;20035;-57
2021/05/23 17:11:36;;;;;;;21.55;14.60;;;;;;;13.60;83.73;99882.81;6342464;27;20054;-58
2021/05/23 17:14:37;;;;;;;22.08;17.42;;;;;;;13.45;84.82;99876.13;6344474;27;20044;-59
2021/05/23 17:17:38;;;;;;;14.13;10.15;;;;;;;13.29;85.58;99872.03;6342996;27;20055;-59
2021/05/23 17:20:40;;;;;;;16.92;9.90;;;;;;;13.20;86.69;99871.84;6343826;27;20042;-59
2021/05/23 17:23:41;;;;;;;8.75;5.97;;;;;;;13.24;86.42;99853.19;6343285;27;20075;-58
2021/05/23 17:26:42;;;;;;;11.07;7.82;;;;;;;13.20;86.49;99835.16;6343575;27;20148;-59
2021/05/23 17:29:44;;;;;;;9.75;6.50;;;;;;;13.03;87.20;99863.50;6343469;27;20100;-59
2021/05/23 17:32:45;;;;;;;11.53;6.10;;;;;;;13.06;88.71;99886.81;6341311;27;20470;-58
2021/05/23 17:35:45;;;;;;;9.10;6.15;;;;;;;13.15;87.71;99900.19;6340972;27;20039;-59
2021/05/23 17:38:46;;;;;;;9.35;5.45;;;;;;;13.12;88.42;99896.00;6343036;27;20058;-59
2021/05/23 17:41:47;;;;;;;12.15;6.75;;;;;;;13.15;88.11;99890.53;6342102;27;20074;-58
2021/05/23 17:44:48;;;;;;;9.75;4.57;;;;;;;13.18;88.33;99887.69;6341603;27;20055;-58
2021/05/23 17:47:50;;;;;;;9.98;4.00;;;;;;;13.14;88.49;99873.16;6341345;27;20035;-56
2021/05/23 17:50:51;;;;;;;10.15;5.55;;;;;;;13.02;88.77;99874.06;6343028;27;20074;-57
2021/05/23 17:53:52;;;;;;;9.65;5.35;;;;;;;13.05;89.28;99876.44;6320241;27;20450;-57
2021/05/23 17:56:53;;;;;;;6.03;3.90;;;;;;;13.13;88.49;99883.75;6338638;27;20097;-58
2021/05/23 17:59:54;;;;;;;6.43;3.60;;;;;;;13.09;89.03;99877.88;6341095;27;20039;-58
2021/05/23 18:02:55;;;;;;;6.22;4.30;;;;;;;13.04;89.66;99853.84;6341306;27;20138;-57
2021/05/23 18:05:56;;;;;;;4.53;3.00;;;;;;;13.05;89.26;99832.78;6322950;27;20060;-55
2021/05/23 18:08:57;;;;;;;5.82;3.78;;;;;;;12.93;90.30;99843.31;6339943;27;20096;-57
2021/05/23 18:11:58;;;;;;;9.48;4.20;;;;;;;12.87;91.32;99881.28;6323492;27;20055;-55
2021/05/23 18:14:59;;;;;;;11.73;6.97;;;;;;;12.94;91.00;99892.97;6340296;27;20067;-60
2021/05/23 18:18:00;;;;;;;30.38;16.55;;;;;;;13.01;89.94;99891.56;6324176;27;20493;-57
2021/05/23 18:21:03;;;;;;;23.48;14.57;;;;;;;12.99;90.58;99898.72;6342335;27;20043;-58
2021/05/23 18:24:04;;;;;;;43.78;24.63;;;;;;;13.03;90.00;99896.69;6343415;27;20206;-58
2021/05/23 18:27:05;;;;;;;119.32;66.95;;;;;;;13.06;90.12;99912.19;6341856;28;20081;-58
2021/05/23 18:30:07;;;;;;;42.63;24.70;;;;;;;13.07;90.22;99925.19;6341139;27;20154;-59
2021/05/23 18:33:08;;;;;;;18.35;7.70;;;;;;;12.98;90.85;99945.97;6342806;27;20066;-59
2021/05/23 18:36:08;;;;;;;18.33;6.75;;;;;;;13.09;89.98;99957.34;6339210;27;20052;-58
2021/05/23 18:39:19;;;;;;;20.02;6.97;;;;;;;13.14;90.25;99964.00;6339432;27;20071;-57
2021/05/23 18:42:24;;;;;;;18.92;6.30;;;;;;;13.18;89.75;99976.78;6340423;27;20040;-58
2021/05/23 18:45:25;;;;;;;10.48;5.47;;;;;;;13.09;90.25;99982.66;6342252;27;20118;-60
2021/05/23 18:48:26;;;;;;;14.77;5.68;;;;;;;13.15;91.63;99984.84;6341873;27;20046;-60
2021/05/23 18:51:27;;;;;;;11.15;5.70;;;;;;;13.18;91.84;100005.59;6342291;27;20062;-59
2021/05/23 18:54:28;;;;;;;9.50;6.40;;;;;;;13.09;91.32;100032.44;6341605;27;20528;-59
2021/05/23 18:57:29;;;;;;;16.50;7.20;;;;;;;13.15;91.24;100031.16;6323034;27;20466;-59
2021/05/23 19:00:30;;;;;;;8.82;5.55;;;;;;;13.03;92.17;100044.22;6340216;27;20035;-59
2021/05/23 19:03:31;;;;;;;12.63;6.07;;;;;;;12.94;93.37;100057.13;6340760;27;20127;-60
2021/05/23 19:06:32;;;;;;;12.93;5.67;;;;;;;12.95;94.01;100064.00;6323100;27;20103;-60
2021/05/23 19:09:33;;;;;;;11.93;5.90;;;;;;;12.87;95.17;100065.41;6341373;27;20043;-59
2021/05/23 19:12:35;;;;;;;10.10;5.30;;;;;;;12.94;94.45;100063.19;6341045;27;20048;-59
2021/05/23 19:15:36;;;;;;;11.25;6.00;;;;;;;12.94;95.32;100078.06;6341527;27;20036;-58
2021/05/23 19:18:39;;;;;;;12.48;5.90;;;;;;;13.01;95.08;100088.00;6339669;28;20093;-59
2021/05/23 19:21:40;;;;;;;8.63;5.20;;;;;;;13.11;94.75;100093.41;6341452;27;20047;-59
2021/05/23 19:24:41;;;;;;;8.50;4.97;;;;;;;13.04;94.86;100092.19;6339847;27;20059;-59
2021/05/23 19:27:43;;;;;;;13.00;4.88;;;;;;;13.19;94.35;100096.31;6340977;27;20160;-58
2021/05/23 19:30:43;;;;;;;9.02;4.03;;;;;;;13.24;94.41;100096.00;6339050;28;20050;-58
2021/05/23 19:33:44;;;;;;;6.68;3.78;;;;;;;13.22;94.06;100097.88;6341338;28;20047;-59
2021/05/23 19:36:45;;;;;;;6.90;4.20;;;;;;;13.10;95.25;100091.75;6338555;27;20131;-58
2021/05/23 19:39:46;;;;;;;9.18;4.50;;;;;;;12.99;95.00;100097.75;6341372;28;20964;-58
2021/05/23 19:42:47;;;;;;;6.03;4.18;;;;;;;13.01;95.58;100106.34;6339351;28;20066;-58
2021/05/23 19:45:48;;;;;;;8.45;5.60;;;;;;;12.97;95.92;100110.13;6338539;28;20092;-58
2021/05/23 19:48:49;;;;;;;6.20;5.47;;;;;;;12.86;95.83;100110.84;6315103;28;20075;-59
2021/05/23 19:51:50;;;;;;;8.30;5.30;;;;;;;12.91;96.28;100115.78;6338519;28;20061;-58
2021/05/23 19:54:53;;;;;;;10.23;5.03;;;;;;;12.92;96.11;100124.47;6340123;28;20048;-59
2021/05/23 19:57:54;;;;;;;6.50;4.82;;;;;;;12.81;96.51;100139.16;6340411;28;20039;-58
2021/05/23 20:00:58;;;;;;;5.55;4.70;;;;;;;12.92;96.18;100151.50;6321211;28;20075;-58
2021/05/23 20:03:59;;;;;;;10.02;5.00;;;;;;;12.93;96.15;100162.81;6344058;28;20075;-60
2021/05/23 20:07:01;;;;;;;9.35;6.20;;;;;;;12.81;96.10;100177.59;6327996;28;20080;-59
2021/05/23 20:10:02;;;;;;;10.40;7.78;;;;;;;12.81;95.74;100182.84;6327031;28;20059;-58
2021/05/23 20:13:04;;;;;;;13.38;8.40;;;;;;;12.81;96.01;100199.38;6319691;28;20048;-58
2021/05/23 20:16:05;;;;;;;11.63;8.20;;;;;;;12.65;96.49;100209.19;6333835;28;20084;-58
2021/05/23 20:19:06;;;;;;;12.02;8.38;;;;;;;12.66;95.71;100221.34;6350065;28;20059;-58
2021/05/23 20:22:07;;;;;;;13.33;8.97;;;;;;;12.55;96.05;100216.81;6316582;28;20036;-58
2021/05/23 20:25:10;;;;;;;10.43;7.70;;;;;;;12.53;96.14;100213.47;6350121;28;20096;-58
2021/05/23 20:28:14;;;;;;;11.00;8.23;;;;;;;12.56;96.31;100218.53;6350868;28;20039;-58
2021/05/23 20:31:15;;;;;;;11.60;7.90;;;;;;;12.54;96.07;100232.63;6334584;28;20066;-59
2021/05/23 20:34:18;;;;;;;11.95;7.07;;;;;;;12.52;96.35;100243.22;6344655;28;20063;-58
2021/05/23 20:37:19;;;;;;;8.13;6.63;;;;;;;12.52;95.97;100253.69;6351174;27;20054;-59
2021/05/23 20:40:22;;;;;;;11.70;6.47;;;;;;;12.56;96.34;100251.69;6325428;28;20047;-58
2021/05/23 20:43:23;;;;;;;12.30;8.32;;;;;;;12.67;95.61;100270.16;6330827;28;20059;-59
2021/05/23 20:46:26;;;;;;;8.27;6.43;;;;;;;12.50;96.13;100281.75;6349853;28;20524;-58
2021/05/23 20:49:28;;;;;;;9.15;5.80;;;;;;;12.44;96.58;100287.38;6346541;28;20059;-58
2021/05/23 20:52:28;;;;;;;7.32;5.57;;;;;;;12.41;96.07;100288.38;6339016;27;20055;-58
2021/05/23 20:55:29;;;;;;;6.13;4.72;;;;;;;12.39;96.55;100298.13;6332630;28;20075;-58
2021/05/23 20:58:30;;;;;;;7.88;5.03;;;;;;;12.45;95.71;100315.22;6306942;28;20032;-58
2021/05/23 21:01:31;;;;;;;7.15;4.88;;;;;;;12.32;96.59;100306.47;6323548;28;20123;-58
2021/05/23 21:04:35;;;;;;;8.00;5.10;;;;;;;12.38;96.45;100320.00;6324701;28;20398;-58
2021/05/23 21:07:36;;;;;;;8.27;5.35;;;;;;;12.38;95.93;100320.00;6323566;28;20040;-58
2021/05/23 21:10:37;;;;;;;9.68;5.80;;;;;;;12.44;96.23;100316.16;6323513;28;20040;-58
2021/05/23 21:13:37;;;;;;;8.05;5.43;;;;;;;12.49;95.37;100314.91;6324648;28;20055;-57
2021/05/23 21:16:38;;;;;;;9.85;5.22;;;;;;;12.43;95.87;100331.00;6323451;28;20036;-58
2021/05/23 21:19:39;;;;;;;9.85;6.18;;;;;;;12.34;96.15;100339.44;6306225;28;20048;-58
2021/05/23 21:22:40;;;;;;;7.93;5.30;;;;;;;12.35;95.97;100337.66;6323062;28;20407;-58
2021/05/23 21:25:41;;;;;;;6.38;5.20;;;;;;;12.34;96.02;100336.84;6322668;28;20040;-57
2021/05/23 21:28:42;;;;;;;6.60;5.32;;;;;;;12.30;96.12;100332.72;6344431;28;20039;-58
2021/05/23 21:31:49;;;;;;;8.57;5.00;;;;;;;12.38;95.33;100342.72;6348821;28;20075;-58
2021/05/23 21:34:50;;;;;;;9.73;5.80;;;;;;;12.30;96.02;100335.34;6324065;28;20102;-58
2021/05/23 21:37:50;;;;;;;6.80;4.97;;;;;;;12.36;96.45;100336.75;6339842;28;20040;-58
2021/05/23 21:40:52;;;;;;;7.85;4.93;;;;;;;12.39;95.76;100344.38;6323849;28;20040;-58
2021/05/23 21:43:53;;;;;;;9.30;5.15;;;;;;;12.44;95.60;100351.00;6323794;28;20043;-57
2021/05/23 21:46:54;;;;;;;7.43;5.00;;;;;;;12.40;95.49;100352.16;6339552;28;20032;-57
2021/05/23 21:49:55;;;;;;;6.45;5.07;;;;;;;12.42;96.02;100360.75;6339378;28;20063;-58
2021/05/23 21:52:56;;;;;;;7.40;5.20;;;;;;;12.37;96.41;100373.25;6305732;28;20048;-58
2021/05/23 21:55:56;;;;;;;6.90;4.95;;;;;;;12.30;95.98;100367.59;6348799;28;20043;-58
2021/05/23 21:58:57;;;;;;;10.00;5.13;;;;;;;12.30;96.07;100378.03;6348810;28;20036;-58
2021/05/23 22:01:58;;;;;;;6.32;4.72;;;;;;;12.25;95.68;100387.97;6313756;28;20434;-58
2021/05/23 22:04:58;;;;;;;6.15;4.75;;;;;;;12.25;95.64;100397.56;6347351;28;20086;-58
2021/05/23 22:08:00;;;;;;;8.93;4.53;;;;;;;12.30;95.70;100409.44;6347322;28;20047;-57
2021/05/23 22:11:01;;;;;;;8.07;4.97;;;;;;;12.29;95.94;100407.78;6347445;28;20486;-57
2021/05/23 22:14:02;;;;;;;6.57;5.00;;;;;;;12.33;95.26;100411.03;6348850;28;20136;-57
2021/05/23 22:17:03;;;;;;;5.97;4.30;;;;;;;12.25;95.59;100398.44;6348394;27;20036;-58
2021/05/23 22:20:13;;;;;;;9.15;4.10;;;;;;;12.36;94.57;100399.53;6346970;28;20505;-57
2021/05/23 22:23:14;;;;;;;6.53;4.13;;;;;;;12.25;95.59;100408.03;6348046;28;20119;-57
2021/05/23 22:26:16;;;;;;;10.23;5.10;;;;;;;12.26;94.82;100407.97;6346971;27;20036;-57
2021/05/23 22:29:17;;;;;;;8.73;4.40;;;;;;;12.28;94.33;100416.56;6322718;28;20504;-57
2021/05/23 22:32:18;;;;;;;7.43;4.22;;;;;;;12.25;94.02;100414.13;6287766;28;20048;-58
2021/05/23 22:35:20;;;;;;;7.85;4.75;;;;;;;12.22;93.66;100419.53;6321490;28;20087;-57
2021/05/23 22:38:22;;;;;;;8.07;4.38;;;;;;;12.00;94.30;100417.41;6320628;28;20071;-58
2021/05/23 22:41:22;;;;;;;9.65;4.22;;;;;;;11.92;94.02;100421.44;6322464;28;20051;-59
2021/05/23 22:44:24;;;;;;;8.38;4.50;;;;;;;11.91;94.12;100430.22;6321101;28;20059;-58
2021/05/23 22:47:25;;;;;;;9.57;4.53;;;;;;;11.85;94.49;100439.25;6322225;28;20097;-57
2021/05/23 22:50:35;;;;;;;7.90;4.20;;;;;;;11.70;94.62;100448.84;6321111;28;20048;-57
2021/05/23 22:53:36;;;;;;;9.52;4.20;;;;;;;11.78;93.59;100451.00;6321872;28;20487;-57
2021/05/23 22:56:38;;;;;;;8.68;4.57;;;;;;;11.69;93.60;100450.63;6320817;28;20040;-58
2021/05/23 22:59:39;;;;;;;5.97;3.97;;;;;;;11.66;94.12;100457.78;6322143;28;20044;-57
2021/05/23 23:02:41;;;;;;;5.97;4.25;;;;;;;11.54;94.30;100461.13;6320546;28;20115;-57
2021/05/23 23:05:42;;;;;;;6.50;4.60;;;;;;;11.48;93.90;100451.88;6320598;28;20059;-57
2021/05/23 23:08:43;;;;;;;8.73;4.68;;;;;;;11.49;93.96;100450.97;6321756;28;20052;-57
2021/05/23 23:11:44;;;;;;;7.30;4.63;;;;;;;11.47;93.70;100458.88;6321754;28;20043;-57
2021/05/23 23:14:45;;;;;;;6.40;4.25;;;;;;;11.52;93.55;100457.75;6321691;28;20509;-56
2021/05/23 23:17:46;;;;;;;8.05;4.60;;;;;;;11.37;93.96;100462.94;6320601;28;20036;-58
2021/05/23 23:20:47;;;;;;;6.82;4.68;;;;;;;11.26;94.68;100460.97;6344649;28;20074;-58
2021/05/23 23:23:48;;;;;;;8.68;5.22;;;;;;;11.17;94.84;100464.09;6346853;28;20040;-57
2021/05/23 23:26:49;;;;;;;9.38;5.30;;;;;;;11.26;94.56;100468.81;6346727;28;20054;-57
2021/05/23 23:29:49;;;;;;;7.30;4.82;;;;;;;11.18;94.59;100464.91;6346759;28;20050;-57
2021/05/23 23:32:50;;;;;;;8.57;5.40;;;;;;;11.26;94.65;100475.78;6346730;28;20122;-58
2021/05/23 23:35:51;;;;;;;9.38;5.07;;;;;;;11.33;94.18;100482.34;6346567;28;20130;-58
2021/05/23 23:38:52;;;;;;;8.13;4.93;;;;;;;11.34;93.98;100489.25;6328577;28;20047;-58
2021/05/23 23:41:53;;;;;;;10.73;4.68;;;;;;;11.23;94.24;100495.09;6345155;28;20043;-58
2021/05/23 23:44:54;;;;;;;8.68;4.97;;;;;;;11.16;93.95;100492.88;6345156;28;20092;-58
2021/05/23 23:47:55;;;;;;;8.65;4.95;;;;;;;11.03;94.75;100500.59;6346215;28;20042;-58
2021/05/23 23:50:56;;;;;;;9.38;4.30;;;;;;;11.05;94.10;100503.94;6346201;28;20042;-58
2021/05/23 23:53:57;;;;;;;8.85;4.38;;;;;;;11.11;93.59;100503.59;6327976;28;20051;-58
2021/05/23 23:56:58;;;;;;;11.05;4.47;;;;;;;11.13;93.57;100516.59;6346331;28;20047;-58
2021/05/23 23:59:59;;;;;;;9.82;4.53;;;;;;;10.95;94.13;100518.44;6346241;28;20553;-58
